< < Back
Terminal Aerodrome Forecast


Current Version              Previous Versions:   1  2  3  4  5  6  7  8  9  

Terminal Aerodrome Forecast

548
FTUS42 KFFC 211012 AAC
TAFFTY
TAF AMD
KFTY 211012Z 2110/2206 05005KT P6SM OVC008
     FM211400 07005KT 4SM BR BKN007 OVC015
     FM211800 08007KT P6SM OVC015
     FM220400 09005KT 6SM BR OVC008=

Latest METAR

609
SAUS70 KWBC 211900 RRC
MTRFTY
METAR KFTY 211853Z 07006KT 10SM OVC010 09/07 A3013 RMK AO2 SLP204
T00940067


USA.gov is the U.S. government's official web portal to all federal, state and local government web resources and services.